createdAt,value
2019-05-02T00:02:23.996Z,28.00
2019-05-02T00:04:51.037Z,30.03
2019-05-02T00:07:21.760Z,33.20
2019-05-02T00:09:50.507Z,33.90
2019-05-02T00:12:19.381Z,31.20
2019-05-02T00:14:47.569Z,31.33
2019-05-02T00:17:20.459Z,27.87
2019-05-02T00:19:49.893Z,28.57
2019-05-02T00:22:17.328Z,28.07
2019-05-02T00:24:46.838Z,30.40
2019-05-02T00:27:16.955Z,29.90
2019-05-02T00:29:45.164Z,29.57
2019-05-02T00:32:13.380Z,34.23
2019-05-02T00:34:41.601Z,29.50
2019-05-02T00:37:09.897Z,26.50
2019-05-02T00:39:38.108Z,31.73
2019-05-02T00:42:12.916Z,31.03
2019-05-02T00:44:36.185Z,31.20
2019-05-02T00:47:06.255Z,29.87
2019-05-02T00:49:36.697Z,27.80
2019-05-02T00:52:05.049Z,28.93
2019-05-02T00:54:33.240Z,28.30
2019-05-02T00:57:01.457Z,30.13
2019-05-02T00:59:29.677Z,29.80
2019-05-02T01:02:15.828Z,27.10
2019-05-02T01:04:45.906Z,29.43
2019-05-02T01:07:14.193Z,28.53
2019-05-02T01:09:46.812Z,28.17
2019-05-02T01:12:25.509Z,31.23
2019-05-02T01:14:42.171Z,29.27
2019-05-02T01:17:10.405Z,29.47
2019-05-02T01:19:38.581Z,28.83
2019-05-02T01:22:10.453Z,25.27
2019-05-02T01:24:39.941Z,28.47
2019-05-02T01:27:10.956Z,29.70
2019-05-02T01:29:43.593Z,26.83
2019-05-02T01:32:25.149Z,26.67
2019-05-02T01:34:56.208Z,25.80
2019-05-02T01:37:28.352Z,24.43
2019-05-02T01:39:56.609Z,26.03
2019-05-02T01:42:24.820Z,26.80
2019-05-02T01:44:53.369Z,29.25
2019-05-02T01:47:21.621Z,27.70
2019-05-02T01:49:52.010Z,30.63
2019-05-02T01:52:23.797Z,27.93
2019-05-02T01:54:49.608Z,29.70
2019-05-02T01:57:18.792Z,30.77
2019-05-02T01:59:46.980Z,25.77
2019-05-02T02:02:16.128Z,35.40
2019-05-02T02:04:44.364Z,28.23
2019-05-02T02:07:15.030Z,29.10
2019-05-02T02:09:43.920Z,28.47
2019-05-02T02:12:13.269Z,34.03
2019-05-02T02:14:41.488Z,27.87
2019-05-02T02:17:10.170Z,26.97
2019-05-02T02:19:43.688Z,27.20
2019-05-02T02:22:14.466Z,28.80
2019-05-02T02:24:47.001Z,27.47
2019-05-02T02:27:20.035Z,29.60
2019-05-02T02:29:46.012Z,29.33
2019-05-02T02:32:20.322Z,30.65
2019-05-02T02:34:44.200Z,28.85
2019-05-02T02:37:15.048Z,29.65
2019-05-02T02:39:42.326Z,29.25
2019-05-02T02:42:10.517Z,25.43
2019-05-02T02:44:44.069Z,32.47
2019-05-02T02:47:18.988Z,23.10
2019-05-02T02:49:42.179Z,25.10
2019-05-02T02:52:10.404Z,21.00
2019-05-02T02:54:43.816Z,24.97
2019-05-02T02:57:21.907Z,25.57
2019-05-02T02:59:38.435Z,24.95
2019-05-02T03:02:10.017Z,27.50
2019-05-02T03:04:36.559Z,25.40
2019-05-02T03:07:04.809Z,23.90
2019-05-02T03:09:33.029Z,23.30
2019-05-02T03:12:21.079Z,23.77
2019-05-02T03:17:20.586Z,19.83
2019-05-02T03:19:54.239Z,23.90
2019-05-02T03:22:18.653Z,22.77
2019-05-02T03:24:47.505Z,18.90
2019-05-02T03:27:16.089Z,23.60
2019-05-02T03:29:44.663Z,21.50
2019-05-02T03:32:22.168Z,20.77
2019-05-02T03:34:52.001Z,22.40
2019-05-02T03:37:13.905Z,20.60
2019-05-02T03:39:42.514Z,19.40
2019-05-02T03:42:10.844Z,20.30
2019-05-02T03:44:39.238Z,22.23
2019-05-02T03:47:07.449Z,21.20
2019-05-02T03:49:41.156Z,20.23
2019-05-02T03:52:06.110Z,22.70
2019-05-02T03:54:35.133Z,18.83
2019-05-02T03:57:03.316Z,19.13
2019-05-02T03:59:39.157Z,24.23
2019-05-02T04:02:01.594Z,20.70
2019-05-02T04:04:29.852Z,20.77
2019-05-02T04:07:01.013Z,24.03
2019-05-02T04:09:32.205Z,23.17
2019-05-02T04:11:59.573Z,22.40
2019-05-02T04:14:37.466Z,19.87
2019-05-02T04:16:59.605Z,24.50
2019-05-02T04:19:28.670Z,19.80
2019-05-02T04:22:01.861Z,19.50
2019-05-02T04:24:28.596Z,20.20
2019-05-02T04:26:56.818Z,18.60
2019-05-02T04:29:31.301Z,18.60
2019-05-02T04:31:56.004Z,18.93
2019-05-02T04:34:24.198Z,18.67
2019-05-02T04:37:00.341Z,20.57
2019-05-02T04:39:22.437Z,19.63
2019-05-02T04:41:50.651Z,17.10
2019-05-02T04:44:19.068Z,22.27
2019-05-02T04:46:48.831Z,16.70
2019-05-02T04:49:20.033Z,25.53
2019-05-02T04:51:59.981Z,20.67
2019-05-02T04:54:26.444Z,20.20
2019-05-02T04:56:53.180Z,22.63
2019-05-02T04:59:22.750Z,23.87
2019-05-02T05:01:54.916Z,17.63
2019-05-02T05:04:18.289Z,24.77
2019-05-02T05:06:55.641Z,20.63
2019-05-02T05:09:18.036Z,18.50
2019-05-02T05:11:48.203Z,20.13
2019-05-02T05:14:17.995Z,17.57
2019-05-02T05:16:51.668Z,14.37
2019-05-02T05:19:17.840Z,15.87
2019-05-02T05:21:47.669Z,15.03
2019-05-02T05:24:18.141Z,17.60
2019-05-02T05:26:47.705Z,13.77
2019-05-02T05:29:19.367Z,17.93
2019-05-02T05:31:48.250Z,16.43
2019-05-02T05:34:17.369Z,13.27
2019-05-02T05:36:47.783Z,18.40
2019-05-02T05:39:17.439Z,14.63
2019-05-02T05:41:48.318Z,13.13
2019-05-02T05:44:17.894Z,14.10
2019-05-02T05:46:46.983Z,18.60
2019-05-02T05:49:20.257Z,16.00
2019-05-02T05:51:45.081Z,12.90
2019-05-02T05:54:13.309Z,14.47
2019-05-02T05:56:43.156Z,16.50
2019-05-02T05:59:11.356Z,14.83
2019-05-02T06:01:39.543Z,15.60
2019-05-02T06:04:08.105Z,16.37
2019-05-02T06:06:37.784Z,17.63
2019-05-02T06:09:07.216Z,20.10
2019-05-02T06:11:37.311Z,14.17
2019-05-02T06:14:05.659Z,15.13
2019-05-02T06:16:35.353Z,14.97
2019-05-02T06:19:03.800Z,14.23
2019-05-02T06:21:32.016Z,18.40
2019-05-02T06:24:00.195Z,15.67
2019-05-02T06:26:28.473Z,15.20
2019-05-02T06:28:56.689Z,12.30
2019-05-02T06:31:24.872Z,13.20
2019-05-02T06:33:53.090Z,13.30
2019-05-02T06:36:21.288Z,15.23
2019-05-02T06:38:52.100Z,14.13
2019-05-02T06:41:20.928Z,15.33
2019-05-02T06:43:50.245Z,16.23
2019-05-02T06:46:21.690Z,15.97
2019-05-02T06:48:52.347Z,16.70
2019-05-02T06:51:20.858Z,15.47
2019-05-02T06:53:48.948Z,17.30
2019-05-02T06:56:17.360Z,14.17
2019-05-02T06:58:45.542Z,16.37
2019-05-02T07:01:16.247Z,19.67
2019-05-02T07:03:46.193Z,19.60
2019-05-02T07:06:13.543Z,17.87
2019-05-02T07:08:41.748Z,16.03
2019-05-02T07:11:10.097Z,16.17
2019-05-02T07:13:41.916Z,17.13
2019-05-02T07:16:16.205Z,16.00
2019-05-02T07:18:49.649Z,15.93
2019-05-02T07:21:23.158Z,17.20
2019-05-02T07:23:48.742Z,15.60
2019-05-02T07:26:21.189Z,21.60
2019-05-02T07:28:47.812Z,16.90
2019-05-02T07:31:16.048Z,16.17
2019-05-02T07:33:44.236Z,18.83
2019-05-02T07:36:12.448Z,19.80
2019-05-02T07:38:41.629Z,18.63
2019-05-02T07:41:09.840Z,20.00
2019-05-02T07:43:38.045Z,17.93
2019-05-02T07:46:06.264Z,20.63
2019-05-02T07:48:34.477Z,17.43
2019-05-02T07:51:02.689Z,18.20
2019-05-02T07:53:30.905Z,17.53
2019-05-02T07:55:59.233Z,25.10
2019-05-02T07:58:27.482Z,19.80
2019-05-02T08:00:55.664Z,19.57
2019-05-02T08:03:23.848Z,17.93
2019-05-02T08:05:54.430Z,19.10
2019-05-02T08:08:25.024Z,23.13
2019-05-02T08:10:53.791Z,18.93
2019-05-02T08:13:21.884Z,18.60
2019-05-02T08:15:50.748Z,20.23
2019-05-02T08:18:19.959Z,20.40
2019-05-02T08:20:51.096Z,19.97
2019-05-02T08:23:20.422Z,19.00
2019-05-02T08:25:48.005Z,21.27
2019-05-02T08:28:20.797Z,20.73
2019-05-02T08:30:50.607Z,22.50
2019-05-02T08:33:18.853Z,23.80
2019-05-02T08:35:47.028Z,20.60
2019-05-02T08:38:17.862Z,22.20
2019-05-02T08:40:47.895Z,23.13
2019-05-02T08:43:15.040Z,22.30
2019-05-02T08:45:43.268Z,22.37
2019-05-02T08:48:11.449Z,23.70
2019-05-02T08:50:39.648Z,21.63
2019-05-02T08:53:07.861Z,27.37
2019-05-02T08:55:36.083Z,24.40
2019-05-02T08:58:06.615Z,22.50
2019-05-02T09:00:37.632Z,24.23
2019-05-02T09:03:04.770Z,25.23
2019-05-02T09:05:36.941Z,27.60
2019-05-02T09:08:03.108Z,25.03
2019-05-02T09:10:31.347Z,30.70
2019-05-02T09:12:59.540Z,27.57
2019-05-02T09:15:27.731Z,24.57
2019-05-02T09:17:56.550Z,25.83
2019-05-02T09:20:25.019Z,24.60
2019-05-02T09:22:55.946Z,23.07
2019-05-02T09:25:23.121Z,23.63
2019-05-02T09:27:52.677Z,24.33
2019-05-02T09:30:22.718Z,23.50
2019-05-02T09:32:52.188Z,27.83
2019-05-02T09:35:22.813Z,25.43
2019-05-02T09:37:52.258Z,24.77
2019-05-02T09:40:23.012Z,29.30
2019-05-02T09:42:53.421Z,26.20
2019-05-02T09:45:23.056Z,25.43
2019-05-02T09:48:03.452Z,26.73
2019-05-02T09:50:29.529Z,27.33
2019-05-02T09:52:52.593Z,26.57
2019-05-02T09:55:22.637Z,26.10
2019-05-02T09:57:51.943Z,23.00
2019-05-02T10:00:32.272Z,28.80
2019-05-02T10:03:02.556Z,30.20
2019-05-02T10:05:32.106Z,26.10
2019-05-02T10:08:03.043Z,29.27
2019-05-02T10:10:32.372Z,25.60
2019-05-02T10:13:02.639Z,29.07
2019-05-02T10:15:32.550Z,25.87
2019-05-02T10:18:08.692Z,26.50
2019-05-02T10:20:34.093Z,22.87
2019-05-02T10:23:02.223Z,29.20
2019-05-02T10:25:38.305Z,28.93
2019-05-02T10:28:02.205Z,26.40
2019-05-02T10:30:35.499Z,23.77
2019-05-02T10:33:02.500Z,26.43
2019-05-02T10:35:38.885Z,27.73
2019-05-02T10:38:02.609Z,28.43
2019-05-02T10:40:32.151Z,28.77
2019-05-02T10:43:00.462Z,28.57
2019-05-02T10:45:28.709Z,30.50
2019-05-02T10:47:56.935Z,30.07
2019-05-02T10:50:26.772Z,25.40
2019-05-02T10:52:54.989Z,24.53
2019-05-02T10:55:24.241Z,26.33
2019-05-02T10:57:52.828Z,27.00
2019-05-02T11:00:23.203Z,27.40
2019-05-02T11:02:53.069Z,28.47
2019-05-02T11:05:26.437Z,25.77
2019-05-02T11:07:56.976Z,24.93
2019-05-02T11:10:23.679Z,25.07
2019-05-02T11:12:56.148Z,31.37
2019-05-02T11:15:26.794Z,32.23
2019-05-02T11:17:55.127Z,28.07
2019-05-02T11:20:23.368Z,28.87
2019-05-02T11:22:52.681Z,29.77
2019-05-02T11:25:22.527Z,26.30
2019-05-02T11:27:52.507Z,25.83
2019-05-02T11:30:22.438Z,32.27
2019-05-02T11:32:52.123Z,26.80
2019-05-02T11:35:22.267Z,29.40
2019-05-02T11:37:51.695Z,27.83
2019-05-02T11:40:20.063Z,28.73
2019-05-02T11:42:48.281Z,25.37
2019-05-02T11:45:17.368Z,27.07
2019-05-02T11:47:45.593Z,27.40
2019-05-02T11:50:13.821Z,28.13
2019-05-02T11:52:42.415Z,26.83
2019-05-02T11:55:12.700Z,28.77
2019-05-02T11:57:42.611Z,28.70
2019-05-02T12:00:12.418Z,29.57
2019-05-02T12:02:42.479Z,29.10
2019-05-02T12:05:12.894Z,27.03
2019-05-02T12:07:41.781Z,27.83
2019-05-02T12:10:12.397Z,26.20
2019-05-02T12:12:40.117Z,25.37
2019-05-02T12:15:08.768Z,24.00
2019-05-02T12:17:37.049Z,27.07
2019-05-02T12:20:05.555Z,25.20
2019-05-02T12:22:33.860Z,29.63
2019-05-02T12:25:02.989Z,26.20
2019-05-02T12:27:31.837Z,29.70
2019-05-02T12:30:00.245Z,26.13
2019-05-02T12:32:28.428Z,25.63
2019-05-02T12:37:24.052Z,26.20
2019-05-02T12:39:52.244Z,27.15
2019-05-02T12:44:48.303Z,24.00
2019-05-02T12:47:16.488Z,28.00
2019-05-02T12:49:44.700Z,27.67
2019-05-02T12:52:13.012Z,27.30
2019-05-02T12:54:41.722Z,26.13
2019-05-02T12:57:09.996Z,23.97
2019-05-02T12:59:38.213Z,30.87
2019-05-02T13:02:08.040Z,24.57
2019-05-02T13:04:36.263Z,23.73
2019-05-02T13:07:04.451Z,24.37
2019-05-02T13:09:32.696Z,26.47
2019-05-02T13:12:14.602Z,23.50
2019-05-02T13:14:42.779Z,23.57
2019-05-02T13:17:11.979Z,25.23
2019-05-02T13:19:43.807Z,23.23
2019-05-02T13:22:14.844Z,24.33
2019-05-02T13:24:47.043Z,30.23
2019-05-02T13:27:16.233Z,23.17
2019-05-02T13:29:44.407Z,22.60
2019-05-02T13:32:18.699Z,22.57
2019-05-02T13:34:48.575Z,23.87
2019-05-02T13:37:18.937Z,19.87
2019-05-02T13:39:54.961Z,20.00
2019-05-02T13:42:23.143Z,24.93
2019-05-02T13:45:02.468Z,20.67
2019-05-02T13:47:32.529Z,22.00
2019-05-02T13:50:03.952Z,18.80
2019-05-02T13:52:33.180Z,18.83
2019-05-02T13:55:01.947Z,24.60
2019-05-02T13:57:34.952Z,19.97
2019-05-02T14:00:02.156Z,16.87
2019-05-02T14:02:31.810Z,20.13
2019-05-02T14:05:02.092Z,19.50
2019-05-02T14:07:32.450Z,24.93
2019-05-02T14:10:02.505Z,19.40
2019-05-02T14:12:38.216Z,17.00
2019-05-02T14:15:06.605Z,17.00
2019-05-02T14:17:34.829Z,17.87
2019-05-02T14:20:10.672Z,19.87
2019-05-02T14:22:33.232Z,17.30
2019-05-02T14:25:01.982Z,18.60
2019-05-02T14:27:32.088Z,18.57
2019-05-02T14:30:02.474Z,20.40
2019-05-02T14:32:32.754Z,20.67
2019-05-02T14:35:02.547Z,18.57
2019-05-02T14:37:32.069Z,24.63
2019-05-02T14:40:02.318Z,23.50
2019-05-02T14:42:32.236Z,23.73
2019-05-02T14:45:08.416Z,22.07
2019-05-02T14:47:32.544Z,24.00
2019-05-02T14:50:03.589Z,27.20
2019-05-02T14:52:30.332Z,24.17
2019-05-02T14:54:58.527Z,24.30
2019-05-02T14:57:27.326Z,28.00
2019-05-02T14:59:59.481Z,29.70
2019-05-02T15:02:32.057Z,28.50
2019-05-02T15:05:01.637Z,25.57
2019-05-02T15:07:29.708Z,24.50
2019-05-02T15:10:02.624Z,25.10
2019-05-02T15:12:27.843Z,25.10
2019-05-02T15:14:58.547Z,27.83
2019-05-02T15:17:28.087Z,25.87
2019-05-02T15:19:55.836Z,24.97
2019-05-02T15:22:27.514Z,28.67
2019-05-02T15:24:56.392Z,25.70
2019-05-02T15:27:23.841Z,27.47
2019-05-02T15:29:53.946Z,28.00
2019-05-02T15:32:25.489Z,32.57
2019-05-02T15:35:17.721Z,26.53
2019-05-02T15:37:43.265Z,26.43
2019-05-02T15:42:44.232Z,26.60
2019-05-02T15:45:12.612Z,29.57
2019-05-02T15:47:41.677Z,31.17
2019-05-02T15:50:16.349Z,27.20
2019-05-02T15:52:42.665Z,29.87
2019-05-02T15:55:11.580Z,32.30
2019-05-02T15:57:43.593Z,28.63
2019-05-02T16:00:17.155Z,30.90
2019-05-02T16:02:42.097Z,35.00
2019-05-02T16:05:11.883Z,28.93
2019-05-02T16:07:44.956Z,29.87
2019-05-02T16:10:12.988Z,28.10
2019-05-02T16:12:42.968Z,33.40
2019-05-02T16:15:18.245Z,30.73
2019-05-02T16:17:42.315Z,28.90
2019-05-02T16:20:13.459Z,31.67
2019-05-02T16:22:46.345Z,33.30
2019-05-02T16:25:13.045Z,32.37
2019-05-02T16:27:48.036Z,34.63
2019-05-02T16:30:18.624Z,28.80
2019-05-02T16:32:48.647Z,30.10
2019-05-02T16:35:18.582Z,32.37
2019-05-02T16:37:51.336Z,29.43
2019-05-02T16:40:22.043Z,32.93
2019-05-02T16:42:48.108Z,30.77
2019-05-02T16:45:16.455Z,32.20
2019-05-02T16:47:44.656Z,30.27
2019-05-02T16:50:13.020Z,29.47
2019-05-02T16:52:43.641Z,32.17
2019-05-02T16:55:13.713Z,32.27
2019-05-02T16:57:42.581Z,36.60
2019-05-02T17:00:13.414Z,28.17
2019-05-02T17:02:43.563Z,29.80
2019-05-02T17:05:12.154Z,30.17
2019-05-02T17:08:02.142Z,30.77
2019-05-02T17:10:42.227Z,32.90
2019-05-02T17:13:12.504Z,30.53
2019-05-02T17:15:40.399Z,32.70
2019-05-02T17:18:13.344Z,29.73
2019-05-02T17:20:38.548Z,28.47
2019-05-02T17:23:07.707Z,27.43
2019-05-02T17:25:37.147Z,28.33
2019-05-02T17:28:09.991Z,28.67
2019-05-02T17:30:38.887Z,29.10
2019-05-02T17:33:07.070Z,29.17
2019-05-02T17:35:35.107Z,30.70
2019-05-02T17:38:03.377Z,34.60
2019-05-02T17:40:31.563Z,37.97
2019-05-02T17:43:02.838Z,37.30
2019-05-02T17:45:33.518Z,37.63
2019-05-02T17:48:00.518Z,39.63
2019-05-02T17:50:49.501Z,39.50
2019-05-02T17:53:16.577Z,46.27
2019-05-02T17:55:44.823Z,39.10
2019-05-02T17:58:16.398Z,39.23
2019-05-02T18:00:47.466Z,42.93
2019-05-02T18:03:15.514Z,45.17
2019-05-02T18:05:43.915Z,44.37
2019-05-02T18:08:14.703Z,41.37
2019-05-02T18:10:42.093Z,44.77
2019-05-02T18:13:12.018Z,45.47
2019-05-02T18:15:41.753Z,41.80
2019-05-02T18:18:10.198Z,41.33
2019-05-02T18:20:42.871Z,43.17
2019-05-02T18:23:09.281Z,40.60
2019-05-02T18:25:37.463Z,52.33
2019-05-02T18:28:06.342Z,42.50
2019-05-02T18:30:34.523Z,47.60
2019-05-02T18:33:06.923Z,46.33
2019-05-02T18:35:37.415Z,43.20
2019-05-02T18:38:03.155Z,42.17
2019-05-02T18:40:32.113Z,44.77
2019-05-02T18:43:01.985Z,44.57
2019-05-02T18:45:31.883Z,48.27
2019-05-02T18:48:06.526Z,45.60
2019-05-02T18:50:31.947Z,48.17
2019-05-02T18:53:03.517Z,41.07
2019-05-02T18:55:31.901Z,41.20
2019-05-02T18:58:03.794Z,46.30
2019-05-02T19:00:37.833Z,50.10
2019-05-02T19:03:07.363Z,46.17
2019-05-02T19:05:33.179Z,46.97
2019-05-02T19:08:02.389Z,49.07
2019-05-02T19:10:32.367Z,45.63
2019-05-02T19:13:04.459Z,39.80
2019-05-02T19:15:34.092Z,47.80
2019-05-02T19:18:02.607Z,43.33
2019-05-02T19:20:32.636Z,41.47
2019-05-02T19:23:02.859Z,46.40
2019-05-02T19:25:32.186Z,42.60
2019-05-02T19:28:02.799Z,45.87
2019-05-02T19:30:37.413Z,42.83
2019-05-02T19:33:07.893Z,47.30
2019-05-02T19:35:37.516Z,43.37
2019-05-02T19:38:06.383Z,43.97
2019-05-02T19:40:34.636Z,43.70
2019-05-02T19:43:07.504Z,42.13
2019-05-02T19:45:32.874Z,46.17
2019-05-02T19:48:03.087Z,43.63
2019-05-02T19:50:40.317Z,41.17
2019-05-02T19:53:04.476Z,46.93
2019-05-02T19:55:32.926Z,45.80
2019-05-02T19:58:05.030Z,39.57
2019-05-02T20:00:31.854Z,43.27
2019-05-02T20:03:01.765Z,43.40
2019-05-02T20:05:32.165Z,43.97
2019-05-02T20:08:00.072Z,40.93
2019-05-02T20:10:28.297Z,43.97
2019-05-02T20:12:56.504Z,41.33
2019-05-02T20:15:27.360Z,45.10
2019-05-02T20:18:00.514Z,45.77
2019-05-02T20:20:40.564Z,37.87
2019-05-02T20:23:15.516Z,45.73
2019-05-02T20:25:39.170Z,43.50
2019-05-02T20:28:07.427Z,39.27
2019-05-02T20:30:35.619Z,40.97
2019-05-02T20:33:05.247Z,41.67
2019-05-02T20:35:33.640Z,41.73
2019-05-02T20:38:01.848Z,37.47
2019-05-02T20:40:31.911Z,43.00
2019-05-02T20:43:02.574Z,46.43
2019-05-02T20:45:32.294Z,43.00
2019-05-02T20:48:02.192Z,29.30
2019-05-02T20:50:31.845Z,27.40
2019-05-02T20:53:01.929Z,21.07
2019-05-02T20:55:32.153Z,21.30
2019-05-02T20:58:02.020Z,21.00
2019-05-02T21:00:32.195Z,18.33
2019-05-02T21:03:02.481Z,20.23
2019-05-02T21:05:32.208Z,20.00
2019-05-02T21:08:05.774Z,21.87
2019-05-02T21:10:53.645Z,22.57
2019-05-02T21:13:22.875Z,22.97
2019-05-02T21:15:52.361Z,26.00
2019-05-02T21:18:22.081Z,21.60
2019-05-02T21:20:52.420Z,32.77
2019-05-02T21:23:21.832Z,25.67
2019-05-02T21:25:52.359Z,26.90
2019-05-02T21:28:20.115Z,28.50
2019-05-02T21:30:48.342Z,29.63
2019-05-02T21:33:22.423Z,30.10
2019-05-02T21:35:51.879Z,29.60
2019-05-02T21:38:22.514Z,26.10
2019-05-02T21:40:50.193Z,31.23
2019-05-02T21:43:18.414Z,28.10
2019-05-02T21:45:46.593Z,26.97
2019-05-02T21:48:14.788Z,25.60
2019-05-02T21:50:51.584Z,29.57
2019-05-02T21:53:22.186Z,26.80
2019-05-02T21:56:02.817Z,27.10
2019-05-02T21:58:32.322Z,24.50
2019-05-02T22:01:02.827Z,25.30
2019-05-02T22:03:32.451Z,24.23
2019-05-02T22:06:00.877Z,22.83
2019-05-02T22:08:29.088Z,27.20
2019-05-02T22:10:57.305Z,13.20
2019-05-02T22:13:25.528Z,16.17
2019-05-02T22:15:55.625Z,7.90
2019-05-02T22:18:23.828Z,8.03
2019-05-02T22:20:52.378Z,8.20
2019-05-02T22:23:20.721Z,8.77
2019-05-02T22:25:49.836Z,8.60
2019-05-02T22:28:18.019Z,7.73
2019-05-02T22:30:46.241Z,10.70
2019-05-02T22:33:14.411Z,8.17
2019-05-02T22:35:43.378Z,9.03
2019-05-02T22:38:16.029Z,7.33
2019-05-02T22:40:46.792Z,7.70
2019-05-02T22:43:17.029Z,9.70
2019-05-02T22:45:46.176Z,5.60
2019-05-02T22:48:16.296Z,9.00
2019-05-02T22:50:44.464Z,7.10
2019-05-02T22:53:13.993Z,8.13
2019-05-02T22:55:42.572Z,7.63
2019-05-02T22:58:10.841Z,7.83
2019-05-02T23:00:41.996Z,4.90
2019-05-02T23:03:10.209Z,6.90
2019-05-02T23:05:38.408Z,6.97
2019-05-02T23:08:06.602Z,5.43
2019-05-02T23:10:34.812Z,8.63
2019-05-02T23:13:02.979Z,6.30
2019-05-02T23:15:32.107Z,8.90
2019-05-02T23:18:06.156Z,6.87
2019-05-02T23:20:34.335Z,6.57
2019-05-02T23:23:02.540Z,5.50
2019-05-02T23:25:48.679Z,6.27
2019-05-02T23:28:18.517Z,4.90
2019-05-02T23:30:46.734Z,7.20
2019-05-02T23:33:14.930Z,5.30
2019-05-02T23:35:43.147Z,8.80
2019-05-02T23:38:12.554Z,5.27
2019-05-02T23:40:42.075Z,5.70
2019-05-02T23:43:12.492Z,7.90
2019-05-02T23:45:42.275Z,5.87
2019-05-02T23:48:12.534Z,5.95
2019-05-02T23:50:40.492Z,6.50
2019-05-02T23:53:08.684Z,6.17
2019-05-02T23:55:36.863Z,7.67
2019-05-02T23:58:05.075Z,6.80
